sensor_id;sensor_type;location;lat;lon;timestamp;temperature;humidity
5938;DHT22;2994;51.220;4.412;2023-02-19T00:00:27;13.59;75.87
5938;DHT22;2994;51.220;4.412;2023-02-19T00:02:53;13.55;76.01
5938;DHT22;2994;51.220;4.412;2023-02-19T00:05:20;13.50;76.05
5938;DHT22;2994;51.220;4.412;2023-02-19T00:07:45;13.52;76.24
5938;DHT22;2994;51.220;4.412;2023-02-19T00:10:11;13.58;75.88
5938;DHT22;2994;51.220;4.412;2023-02-19T00:12:36;13.43;76.28
5938;DHT22;2994;51.220;4.412;2023-02-19T00:15:01;13.54;75.85
5938;DHT22;2994;51.220;4.412;2023-02-19T00:17:27;13.44;76.15
5938;DHT22;2994;51.220;4.412;2023-02-19T00:19:52;13.40;75.84
5938;DHT22;2994;51.220;4.412;2023-02-19T00:22:18;13.54;75.67
5938;DHT22;2994;51.220;4.412;2023-02-19T00:24:43;13.61;75.41
5938;DHT22;2994;51.220;4.412;2023-02-19T00:27:09;13.69;74.99
5938;DHT22;2994;51.220;4.412;2023-02-19T00:29:34;13.60;75.04
5938;DHT22;2994;51.220;4.412;2023-02-19T00:32:00;13.67;74.77
5938;DHT22;2994;51.220;4.412;2023-02-19T00:34:25;13.41;75.54
5938;DHT22;2994;51.220;4.412;2023-02-19T00:36:50;13.53;75.18
5938;DHT22;2994;51.220;4.412;2023-02-19T00:39:16;13.27;75.77
5938;DHT22;2994;51.220;4.412;2023-02-19T00:41:43;13.22;76.14
5938;DHT22;2994;51.220;4.412;2023-02-19T00:44:10;13.27;75.89
5938;DHT22;2994;51.220;4.412;2023-02-19T00:46:38;13.32;75.86
5938;DHT22;2994;51.220;4.412;2023-02-19T00:49:05;13.18;76.23
5938;DHT22;2994;51.220;4.412;2023-02-19T00:51:33;13.04;76.84
5938;DHT22;2994;51.220;4.412;2023-02-19T00:53:59;13.16;76.40
5938;DHT22;2994;51.220;4.412;2023-02-19T00:56:25;13.16;76.57
5938;DHT22;2994;51.220;4.412;2023-02-19T00:58:51;13.27;76.15
5938;DHT22;2994;51.220;4.412;2023-02-19T01:01:18;13.07;76.80
5938;DHT22;2994;51.220;4.412;2023-02-19T01:03:44;12.99;77.11
5938;DHT22;2994;51.220;4.412;2023-02-19T01:06:10;13.06;76.70
5938;DHT22;2994;51.220;4.412;2023-02-19T01:08:37;13.15;76.43
5938;DHT22;2994;51.220;4.412;2023-02-19T01:11:04;13.17;76.21
5938;DHT22;2994;51.220;4.412;2023-02-19T01:13:30;13.18;76.33
5938;DHT22;2994;51.220;4.412;2023-02-19T01:16:22;13.19;76.15
5938;DHT22;2994;51.220;4.412;2023-02-19T01:18:49;13.19;76.31
5938;DHT22;2994;51.220;4.412;2023-02-19T01:21:17;13.32;75.72
5938;DHT22;2994;51.220;4.412;2023-02-19T01:23:43;13.25;75.72
5938;DHT22;2994;51.220;4.412;2023-02-19T01:26:15;13.14;76.21
5938;DHT22;2994;51.220;4.412;2023-02-19T01:28:41;13.20;76.08
5938;DHT22;2994;51.220;4.412;2023-02-19T01:31:13;13.18;76.29
5938;DHT22;2994;51.220;4.412;2023-02-19T01:33:39;13.31;75.60
5938;DHT22;2994;51.220;4.412;2023-02-19T01:36:05;13.21;75.94
5938;DHT22;2994;51.220;4.412;2023-02-19T01:38:31;13.16;75.95
5938;DHT22;2994;51.220;4.412;2023-02-19T01:40:59;13.18;76.03
5938;DHT22;2994;51.220;4.412;2023-02-19T01:43:25;13.10;75.92
5938;DHT22;2994;51.220;4.412;2023-02-19T01:45:51;13.17;75.83
5938;DHT22;2994;51.220;4.412;2023-02-19T01:48:20;13.26;75.68
5938;DHT22;2994;51.220;4.412;2023-02-19T01:51:07;13.06;76.09
5938;DHT22;2994;51.220;4.412;2023-02-19T01:53:37;13.23;75.56
5938;DHT22;2994;51.220;4.412;2023-02-19T01:56:04;12.94;76.54
5938;DHT22;2994;51.220;4.412;2023-02-19T01:58:32;12.87;76.44
5938;DHT22;2994;51.220;4.412;2023-02-19T02:01:00;12.88;76.44
5938;DHT22;2994;51.220;4.412;2023-02-19T02:03:27;12.93;75.96
5938;DHT22;2994;51.220;4.412;2023-02-19T02:08:21;12.94;75.86
5938;DHT22;2994;51.220;4.412;2023-02-19T02:11:06;12.81;75.85
5938;DHT22;2994;51.220;4.412;2023-02-19T02:13:32;12.57;76.99
5938;DHT22;2994;51.220;4.412;2023-02-19T02:22:06;12.59;76.16
5938;DHT22;2994;51.220;4.412;2023-02-19T02:30:07;12.79;75.02
5938;DHT22;2994;51.220;4.412;2023-02-19T02:33:05;12.64;75.09
5938;DHT22;2994;51.220;4.412;2023-02-19T02:35:40;12.81;74.82
5938;DHT22;2994;51.220;4.412;2023-02-19T02:38:09;12.81;74.23
5938;DHT22;2994;51.220;4.412;2023-02-19T02:40:36;12.78;74.24
5938;DHT22;2994;51.220;4.412;2023-02-19T02:43:04;12.72;74.22
5938;DHT22;2994;51.220;4.412;2023-02-19T02:45:31;12.73;74.33
5938;DHT22;2994;51.220;4.412;2023-02-19T02:53:26;12.70;73.93
5938;DHT22;2994;51.220;4.412;2023-02-19T02:56:13;12.71;73.48
5938;DHT22;2994;51.220;4.412;2023-02-19T02:58:40;12.61;73.94
5938;DHT22;2994;51.220;4.412;2023-02-19T03:01:10;12.62;73.26
5938;DHT22;2994;51.220;4.412;2023-02-19T03:04:04;12.67;73.12
5938;DHT22;2994;51.220;4.412;2023-02-19T03:06:32;12.85;72.22
5938;DHT22;2994;51.220;4.412;2023-02-19T03:11:34;12.94;72.06
5938;DHT22;2994;51.220;4.412;2023-02-19T03:14:28;13.03;71.75
5938;DHT22;2994;51.220;4.412;2023-02-19T03:17:28;12.91;71.75
5938;DHT22;2994;51.220;4.412;2023-02-19T03:20:15;12.84;71.94
5938;DHT22;2994;51.220;4.412;2023-02-19T03:22:43;12.73;72.22
5938;DHT22;2994;51.220;4.412;2023-02-19T03:25:16;12.94;71.65
5938;DHT22;2994;51.220;4.412;2023-02-19T03:28:04;12.77;72.12
5938;DHT22;2994;51.220;4.412;2023-02-19T03:30:34;12.89;71.34
5938;DHT22;2994;51.220;4.412;2023-02-19T03:33:05;12.88;71.54
5938;DHT22;2994;51.220;4.412;2023-02-19T03:35:37;13.07;70.93
5938;DHT22;2994;51.220;4.412;2023-02-19T03:46:44;12.95;71.11
5938;DHT22;2994;51.220;4.412;2023-02-19T03:52:22;12.75;71.59
5938;DHT22;2994;51.220;4.412;2023-02-19T03:55:16;12.80;71.50
5938;DHT22;2994;51.220;4.412;2023-02-19T03:57:55;12.92;71.14
5938;DHT22;2994;51.220;4.412;2023-02-19T04:03:23;12.80;71.46
5938;DHT22;2994;51.220;4.412;2023-02-19T04:05:55;12.79;71.64
5938;DHT22;2994;51.220;4.412;2023-02-19T04:08:24;12.73;71.67
5938;DHT22;2994;51.220;4.412;2023-02-19T04:10:52;12.69;71.48
5938;DHT22;2994;51.220;4.412;2023-02-19T04:13:25;12.85;71.45
5938;DHT22;2994;51.220;4.412;2023-02-19T04:15:53;12.90;70.68
5938;DHT22;2994;51.220;4.412;2023-02-19T04:18:24;12.84;71.16
5938;DHT22;2994;51.220;4.412;2023-02-19T04:20:51;12.88;70.92
5938;DHT22;2994;51.220;4.412;2023-02-19T04:23:20;13.00;70.72
5938;DHT22;2994;51.220;4.412;2023-02-19T04:25:49;12.88;70.77
5938;DHT22;2994;51.220;4.412;2023-02-19T04:28:17;12.79;71.16
5938;DHT22;2994;51.220;4.412;2023-02-19T04:30:44;12.66;71.49
5938;DHT22;2994;51.220;4.412;2023-02-19T04:33:09;12.81;70.98
5938;DHT22;2994;51.220;4.412;2023-02-19T04:35:35;12.67;71.29
5938;DHT22;2994;51.220;4.412;2023-02-19T04:38:00;12.74;71.29
5938;DHT22;2994;51.220;4.412;2023-02-19T04:40:26;12.67;71.06
5938;DHT22;2994;51.220;4.412;2023-02-19T04:42:51;12.53;71.55
5938;DHT22;2994;51.220;4.412;2023-02-19T04:45:17;12.59;71.33
5938;DHT22;2994;51.220;4.412;2023-02-19T04:47:42;12.52;71.67
5938;DHT22;2994;51.220;4.412;2023-02-19T04:50:08;12.79;70.96
5938;DHT22;2994;51.220;4.412;2023-02-19T04:52:33;12.92;70.26
5938;DHT22;2994;51.220;4.412;2023-02-19T04:54:59;12.79;70.42
5938;DHT22;2994;51.220;4.412;2023-02-19T04:57:25;12.89;70.52
5938;DHT22;2994;51.220;4.412;2023-02-19T04:59:51;12.86;70.39
5938;DHT22;2994;51.220;4.412;2023-02-19T05:02:16;12.71;70.83
5938;DHT22;2994;51.220;4.412;2023-02-19T05:04:42;12.77;70.48
5938;DHT22;2994;51.220;4.412;2023-02-19T05:07:07;12.74;70.33
5938;DHT22;2994;51.220;4.412;2023-02-19T05:09:33;12.64;71.06
5938;DHT22;2994;51.220;4.412;2023-02-19T05:11:58;12.82;70.65
5938;DHT22;2994;51.220;4.412;2023-02-19T05:14:23;12.81;70.56
5938;DHT22;2994;51.220;4.412;2023-02-19T05:16:49;12.79;70.54
5938;DHT22;2994;51.220;4.412;2023-02-19T05:19:14;12.75;70.55
5938;DHT22;2994;51.220;4.412;2023-02-19T05:21:40;12.77;70.30
5938;DHT22;2994;51.220;4.412;2023-02-19T05:24:06;12.79;70.32
5938;DHT22;2994;51.220;4.412;2023-02-19T05:26:32;12.86;70.33
5938;DHT22;2994;51.220;4.412;2023-02-19T05:28:58;12.69;70.85
5938;DHT22;2994;51.220;4.412;2023-02-19T05:31:24;12.76;70.53
5938;DHT22;2994;51.220;4.412;2023-02-19T05:33:49;12.86;70.35
5938;DHT22;2994;51.220;4.412;2023-02-19T05:36:18;12.63;70.63
5938;DHT22;2994;51.220;4.412;2023-02-19T05:38:44;12.59;70.90
5938;DHT22;2994;51.220;4.412;2023-02-19T05:41:15;12.77;70.41
5938;DHT22;2994;51.220;4.412;2023-02-19T05:43:42;12.76;69.94
5938;DHT22;2994;51.220;4.412;2023-02-19T05:46:09;12.70;70.25
5938;DHT22;2994;51.220;4.412;2023-02-19T05:48:35;12.64;70.45
5938;DHT22;2994;51.220;4.412;2023-02-19T05:51:03;12.60;70.44
5938;DHT22;2994;51.220;4.412;2023-02-19T05:53:30;12.79;69.81
5938;DHT22;2994;51.220;4.412;2023-02-19T05:55:55;12.56;70.37
5938;DHT22;2994;51.220;4.412;2023-02-19T05:58:21;12.69;70.23
5938;DHT22;2994;51.220;4.412;2023-02-19T06:00:46;12.51;70.42
5938;DHT22;2994;51.220;4.412;2023-02-19T06:03:12;12.62;70.26
5938;DHT22;2994;51.220;4.412;2023-02-19T06:05:37;12.62;70.19
5938;DHT22;2994;51.220;4.412;2023-02-19T06:08:03;12.44;70.65
5938;DHT22;2994;51.220;4.412;2023-02-19T06:10:28;12.60;70.28
5938;DHT22;2994;51.220;4.412;2023-02-19T06:12:54;12.33;70.79
5938;DHT22;2994;51.220;4.412;2023-02-19T06:15:19;12.21;71.22
5938;DHT22;2994;51.220;4.412;2023-02-19T06:17:45;12.11;71.61
5938;DHT22;2994;51.220;4.412;2023-02-19T06:20:11;12.23;71.26
5938;DHT22;2994;51.220;4.412;2023-02-19T06:22:36;12.37;70.87
5938;DHT22;2994;51.220;4.412;2023-02-19T06:25:02;12.30;71.16
5938;DHT22;2994;51.220;4.412;2023-02-19T06:27:28;12.41;70.61
5938;DHT22;2994;51.220;4.412;2023-02-19T06:29:53;12.36;70.81
5938;DHT22;2994;51.220;4.412;2023-02-19T06:32:19;12.34;70.92
5938;DHT22;2994;51.220;4.412;2023-02-19T06:34:44;12.18;71.45
5938;DHT22;2994;51.220;4.412;2023-02-19T06:37:10;12.08;71.58
5938;DHT22;2994;51.220;4.412;2023-02-19T06:39:35;12.31;71.03
5938;DHT22;2994;51.220;4.412;2023-02-19T06:42:01;12.31;70.71
5938;DHT22;2994;51.220;4.412;2023-02-19T06:44:26;12.37;70.68
5938;DHT22;2994;51.220;4.412;2023-02-19T06:46:54;12.18;71.37
5938;DHT22;2994;51.220;4.412;2023-02-19T06:49:20;12.18;71.28
5938;DHT22;2994;51.220;4.412;2023-02-19T06:51:45;12.37;70.62
5938;DHT22;2994;51.220;4.412;2023-02-19T06:54:11;12.36;70.81
5938;DHT22;2994;51.220;4.412;2023-02-19T06:56:38;12.50;70.54
5938;DHT22;2994;51.220;4.412;2023-02-19T06:59:06;12.36;70.59
5938;DHT22;2994;51.220;4.412;2023-02-19T07:01:32;12.19;71.61
5938;DHT22;2994;51.220;4.412;2023-02-19T07:03:59;12.29;70.98
5938;DHT22;2994;51.220;4.412;2023-02-19T07:06:25;12.25;71.32
5938;DHT22;2994;51.220;4.412;2023-02-19T07:08:53;12.28;71.27
5938;DHT22;2994;51.220;4.412;2023-02-19T07:11:18;12.38;70.96
5938;DHT22;2994;51.220;4.412;2023-02-19T07:13:44;12.34;70.96
5938;DHT22;2994;51.220;4.412;2023-02-19T07:16:10;12.38;70.87
5938;DHT22;2994;51.220;4.412;2023-02-19T07:18:37;12.30;71.45
5938;DHT22;2994;51.220;4.412;2023-02-19T07:21:09;12.27;71.55
5938;DHT22;2994;51.220;4.412;2023-02-19T07:23:35;12.37;71.28
5938;DHT22;2994;51.220;4.412;2023-02-19T07:26:01;12.46;70.93
5938;DHT22;2994;51.220;4.412;2023-02-19T07:28:26;12.27;71.61
5938;DHT22;2994;51.220;4.412;2023-02-19T07:30:52;12.35;71.13
5938;DHT22;2994;51.220;4.412;2023-02-19T07:33:18;12.12;72.01
5938;DHT22;2994;51.220;4.412;2023-02-19T07:35:45;12.29;71.47
5938;DHT22;2994;51.220;4.412;2023-02-19T07:38:10;12.41;71.22
5938;DHT22;2994;51.220;4.412;2023-02-19T07:40:36;12.37;71.32
5938;DHT22;2994;51.220;4.412;2023-02-19T07:43:02;12.42;71.20
5938;DHT22;2994;51.220;4.412;2023-02-19T07:45:27;12.13;71.77
5938;DHT22;2994;51.220;4.412;2023-02-19T07:47:53;12.08;72.28
5938;DHT22;2994;51.220;4.412;2023-02-19T07:50:18;12.19;71.67
5938;DHT22;2994;51.220;4.412;2023-02-19T07:52:43;12.21;71.67
5938;DHT22;2994;51.220;4.412;2023-02-19T07:55:09;12.11;71.89
5938;DHT22;2994;51.220;4.412;2023-02-19T07:57:34;12.13;71.77
5938;DHT22;2994;51.220;4.412;2023-02-19T08:00:00;12.12;72.03
5938;DHT22;2994;51.220;4.412;2023-02-19T08:02:25;12.26;71.07
5938;DHT22;2994;51.220;4.412;2023-02-19T08:05:10;12.30;71.29
5938;DHT22;2994;51.220;4.412;2023-02-19T08:07:36;12.42;70.92
5938;DHT22;2994;51.220;4.412;2023-02-19T08:10:03;12.47;70.80
5938;DHT22;2994;51.220;4.412;2023-02-19T08:12:59;12.50;70.63
5938;DHT22;2994;51.220;4.412;2023-02-19T08:15:50;12.52;70.64
5938;DHT22;2994;51.220;4.412;2023-02-19T08:18:18;12.45;71.25
5938;DHT22;2994;51.220;4.412;2023-02-19T08:20:44;12.65;70.70
5938;DHT22;2994;51.220;4.412;2023-02-19T08:23:10;12.57;70.71
5938;DHT22;2994;51.220;4.412;2023-02-19T08:25:36;12.42;71.33
5938;DHT22;2994;51.220;4.412;2023-02-19T08:28:06;12.53;70.95
5938;DHT22;2994;51.220;4.412;2023-02-19T08:30:32;12.67;70.68
5938;DHT22;2994;51.220;4.412;2023-02-19T08:33:01;12.49;70.92
5938;DHT22;2994;51.220;4.412;2023-02-19T08:35:27;12.47;70.98
5938;DHT22;2994;51.220;4.412;2023-02-19T08:37:56;12.66;70.55
5938;DHT22;2994;51.220;4.412;2023-02-19T08:40:23;12.89;70.13
5938;DHT22;2994;51.220;4.412;2023-02-19T08:42:48;12.73;69.96
5938;DHT22;2994;51.220;4.412;2023-02-19T08:45:14;12.96;69.31
5938;DHT22;2994;51.220;4.412;2023-02-19T08:47:40;13.00;68.91
5938;DHT22;2994;51.220;4.412;2023-02-19T08:50:06;12.86;69.21
5938;DHT22;2994;51.220;4.412;2023-02-19T08:52:34;13.08;68.94
5938;DHT22;2994;51.220;4.412;2023-02-19T08:55:00;13.14;68.36
5938;DHT22;2994;51.220;4.412;2023-02-19T08:57:26;12.94;68.83
5938;DHT22;2994;51.220;4.412;2023-02-19T08:59:56;13.15;68.10
5938;DHT22;2994;51.220;4.412;2023-02-19T09:02:25;13.24;68.17
5938;DHT22;2994;51.220;4.412;2023-02-19T09:04:50;13.00;68.84
5938;DHT22;2994;51.220;4.412;2023-02-19T09:07:16;13.17;68.39
5938;DHT22;2994;51.220;4.412;2023-02-19T09:09:45;13.14;67.90
5938;DHT22;2994;51.220;4.412;2023-02-19T09:12:11;13.19;68.26
5938;DHT22;2994;51.220;4.412;2023-02-19T09:14:37;13.19;68.12
5938;DHT22;2994;51.220;4.412;2023-02-19T09:17:05;13.18;67.82
5938;DHT22;2994;51.220;4.412;2023-02-19T09:19:31;13.07;67.74
5938;DHT22;2994;51.220;4.412;2023-02-19T09:21:57;12.79;69.26
5938;DHT22;2994;51.220;4.412;2023-02-19T09:24:23;12.77;69.94
5938;DHT22;2994;51.220;4.412;2023-02-19T09:26:50;12.71;70.16
5938;DHT22;2994;51.220;4.412;2023-02-19T09:29:15;12.74;71.10
5938;DHT22;2994;51.220;4.412;2023-02-19T09:31:41;12.84;71.10
5938;DHT22;2994;51.220;4.412;2023-02-19T09:34:07;12.78;71.60
5938;DHT22;2994;51.220;4.412;2023-02-19T09:36:32;12.86;70.97
5938;DHT22;2994;51.220;4.412;2023-02-19T09:38:59;12.87;70.78
5938;DHT22;2994;51.220;4.412;2023-02-19T09:41:30;12.80;70.72
5938;DHT22;2994;51.220;4.412;2023-02-19T09:44:00;12.70;71.00
5938;DHT22;2994;51.220;4.412;2023-02-19T09:48:52;12.78;70.14
5938;DHT22;2994;51.220;4.412;2023-02-19T09:51:20;12.75;70.35
5938;DHT22;2994;51.220;4.412;2023-02-19T09:53:48;12.79;70.26
5938;DHT22;2994;51.220;4.412;2023-02-19T09:56:15;12.75;69.97
5938;DHT22;2994;51.220;4.412;2023-02-19T09:58:49;12.71;69.81
5938;DHT22;2994;51.220;4.412;2023-02-19T10:01:16;12.61;69.51
5938;DHT22;2994;51.220;4.412;2023-02-19T10:03:47;12.58;69.86
5938;DHT22;2994;51.220;4.412;2023-02-19T10:06:17;12.48;70.22
5938;DHT22;2994;51.220;4.412;2023-02-19T10:08:45;12.64;69.86
5938;DHT22;2994;51.220;4.412;2023-02-19T10:11:11;12.70;69.23
5938;DHT22;2994;51.220;4.412;2023-02-19T10:13:48;12.66;69.43
5938;DHT22;2994;51.220;4.412;2023-02-19T10:16:23;12.76;69.29
5938;DHT22;2994;51.220;4.412;2023-02-19T10:18:49;12.76;69.28
5938;DHT22;2994;51.220;4.412;2023-02-19T10:21:23;12.89;68.88
5938;DHT22;2994;51.220;4.412;2023-02-19T10:23:52;12.79;69.01
5938;DHT22;2994;51.220;4.412;2023-02-19T10:26:18;12.77;69.42
5938;DHT22;2994;51.220;4.412;2023-02-19T10:28:44;12.71;69.68
5938;DHT22;2994;51.220;4.412;2023-02-19T10:31:18;12.78;69.41
5938;DHT22;2994;51.220;4.412;2023-02-19T10:38:49;13.00;68.41
5938;DHT22;2994;51.220;4.412;2023-02-19T10:41:20;13.05;68.42
5938;DHT22;2994;51.220;4.412;2023-02-19T10:44:06;12.99;68.52
5938;DHT22;2994;51.220;4.412;2023-02-19T10:46:41;13.16;68.15
5938;DHT22;2994;51.220;4.412;2023-02-19T10:51:53;13.34;67.86
5938;DHT22;2994;51.220;4.412;2023-02-19T10:54:33;13.30;67.70
5938;DHT22;2994;51.220;4.412;2023-02-19T10:59:48;13.40;66.88
5938;DHT22;2994;51.220;4.412;2023-02-19T11:02:16;13.18;68.17
5938;DHT22;2994;51.220;4.412;2023-02-19T11:05:05;13.44;67.52
5938;DHT22;2994;51.220;4.412;2023-02-19T11:07:31;13.35;67.12
5938;DHT22;2994;51.220;4.412;2023-02-19T11:09:58;13.49;67.33
5938;DHT22;2994;51.220;4.412;2023-02-19T11:12:28;13.58;67.11
5938;DHT22;2994;51.220;4.412;2023-02-19T11:14:55;13.60;66.85
5938;DHT22;2994;51.220;4.412;2023-02-19T11:17:26;13.43;67.22
5938;DHT22;2994;51.220;4.412;2023-02-19T11:19:57;13.34;67.41
5938;DHT22;2994;51.220;4.412;2023-02-19T11:24:53;13.46;67.18
5938;DHT22;2994;51.220;4.412;2023-02-19T11:27:23;13.49;66.90
5938;DHT22;2994;51.220;4.412;2023-02-19T11:29:49;13.21;65.73
5938;DHT22;2994;51.220;4.412;2023-02-19T11:32:27;13.34;65.91
5938;DHT22;2994;51.220;4.412;2023-02-19T11:35:31;13.33;65.17
5938;DHT22;2994;51.220;4.412;2023-02-19T11:37:58;13.27;64.36
5938;DHT22;2994;51.220;4.412;2023-02-19T11:49:42;13.38;64.52
5938;DHT22;2994;51.220;4.412;2023-02-19T11:58:32;13.32;64.86
5938;DHT22;2994;51.220;4.412;2023-02-19T12:03:32;13.43;64.16
5938;DHT22;2994;51.220;4.412;2023-02-19T12:19:44;13.65;62.91
5938;DHT22;2994;51.220;4.412;2023-02-19T12:27:59;13.32;63.50
5938;DHT22;2994;51.220;4.412;2023-02-19T12:35:45;13.65;62.49
5938;DHT22;2994;51.220;4.412;2023-02-19T12:38:20;13.45;62.95
5938;DHT22;2994;51.220;4.412;2023-02-19T12:41:12;13.05;63.66
5938;DHT22;2994;51.220;4.412;2023-02-19T12:44:04;13.08;63.99
5938;DHT22;2994;51.220;4.412;2023-02-19T12:46:37;13.23;64.03
5938;DHT22;2994;51.220;4.412;2023-02-19T12:49:09;13.39;63.71
5938;DHT22;2994;51.220;4.412;2023-02-19T12:51:48;13.25;64.21
5938;DHT22;2994;51.220;4.412;2023-02-19T12:57:01;13.27;64.21
5938;DHT22;2994;51.220;4.412;2023-02-19T12:59:45;13.18;64.63
5938;DHT22;2994;51.220;4.412;2023-02-19T13:07:43;13.17;64.75
5938;DHT22;2994;51.220;4.412;2023-02-19T13:10:31;13.27;64.39
5938;DHT22;2994;51.220;4.412;2023-02-19T13:13:04;13.10;64.53
5938;DHT22;2994;51.220;4.412;2023-02-19T13:15:37;13.23;64.82
5938;DHT22;2994;51.220;4.412;2023-02-19T13:18:12;13.05;64.27
5938;DHT22;2994;51.220;4.412;2023-02-19T13:20:45;13.10;64.21
5938;DHT22;2994;51.220;4.412;2023-02-19T13:23:17;12.95;64.59
5938;DHT22;2994;51.220;4.412;2023-02-19T13:37:12;13.07;62.82
5938;DHT22;2994;51.220;4.412;2023-02-19T13:39:54;12.99;62.75
5938;DHT22;2994;51.220;4.412;2023-02-19T13:42:32;12.91;62.85
5938;DHT22;2994;51.220;4.412;2023-02-19T13:44:58;12.81;62.95
5938;DHT22;2994;51.220;4.412;2023-02-19T13:47:47;13.01;62.62
5938;DHT22;2994;51.220;4.412;2023-02-19T13:50:22;12.97;62.50
5938;DHT22;2994;51.220;4.412;2023-02-19T13:52:48;12.99;62.79
5938;DHT22;2994;51.220;4.412;2023-02-19T13:58:33;12.85;62.95
5938;DHT22;2994;51.220;4.412;2023-02-19T14:01:06;12.96;62.37
5938;DHT22;2994;51.220;4.412;2023-02-19T14:03:39;12.80;61.52
5938;DHT22;2994;51.220;4.412;2023-02-19T14:06:09;12.92;60.58
5938;DHT22;2994;51.220;4.412;2023-02-19T14:08:55;13.07;61.26
5938;DHT22;2994;51.220;4.412;2023-02-19T14:14:33;13.00;59.81
5938;DHT22;2994;51.220;4.412;2023-02-19T14:27:49;13.16;60.28
5938;DHT22;2994;51.220;4.412;2023-02-19T14:30:16;13.08;60.89
5938;DHT22;2994;51.220;4.412;2023-02-19T14:32:42;12.84;61.99
5938;DHT22;2994;51.220;4.412;2023-02-19T14:35:18;12.85;61.86
5938;DHT22;2994;51.220;4.412;2023-02-19T14:37:49;12.86;62.42
5938;DHT22;2994;51.220;4.412;2023-02-19T14:40:31;12.81;61.97
5938;DHT22;2994;51.220;4.412;2023-02-19T14:43:00;12.82;62.12
5938;DHT22;2994;51.220;4.412;2023-02-19T14:45:27;12.82;62.30
5938;DHT22;2994;51.220;4.412;2023-02-19T14:47:55;12.84;62.05
5938;DHT22;2994;51.220;4.412;2023-02-19T14:50:28;12.70;62.53
5938;DHT22;2994;51.220;4.412;2023-02-19T14:52:58;12.75;62.49
5938;DHT22;2994;51.220;4.412;2023-02-19T14:55:33;12.89;62.49
5938;DHT22;2994;51.220;4.412;2023-02-19T14:58:03;12.88;61.99
5938;DHT22;2994;51.220;4.412;2023-02-19T15:00:34;12.75;62.53
5938;DHT22;2994;51.220;4.412;2023-02-19T15:03:02;12.75;62.78
5938;DHT22;2994;51.220;4.412;2023-02-19T15:05:30;12.87;62.24
5938;DHT22;2994;51.220;4.412;2023-02-19T15:08:06;12.88;61.81
5938;DHT22;2994;51.220;4.412;2023-02-19T15:10:34;12.82;61.97
5938;DHT22;2994;51.220;4.412;2023-02-19T15:13:03;12.99;62.05
5938;DHT22;2994;51.220;4.412;2023-02-19T15:15:35;12.86;62.25
5938;DHT22;2994;51.220;4.412;2023-02-19T15:18:02;12.97;61.99
5938;DHT22;2994;51.220;4.412;2023-02-19T15:20:31;12.94;61.69
5938;DHT22;2994;51.220;4.412;2023-02-19T15:22:59;12.99;62.46
5938;DHT22;2994;51.220;4.412;2023-02-19T15:25:37;13.14;61.98
5938;DHT22;2994;51.220;4.412;2023-02-19T15:28:24;13.18;61.97
5938;DHT22;2994;51.220;4.412;2023-02-19T15:33:25;13.18;62.34
5938;DHT22;2994;51.220;4.412;2023-02-19T15:35:56;13.05;62.12
5938;DHT22;2994;51.220;4.412;2023-02-19T15:38:23;13.11;62.00
5938;DHT22;2994;51.220;4.412;2023-02-19T15:40:49;13.06;62.37
5938;DHT22;2994;51.220;4.412;2023-02-19T15:43:23;12.94;62.82
5938;DHT22;2994;51.220;4.412;2023-02-19T15:45:50;13.00;62.63
5938;DHT22;2994;51.220;4.412;2023-02-19T15:48:25;12.95;62.76
5938;DHT22;2994;51.220;4.412;2023-02-19T15:50:58;12.99;62.98
5938;DHT22;2994;51.220;4.412;2023-02-19T15:53:36;12.96;63.23
5938;DHT22;2994;51.220;4.412;2023-02-19T15:56:07;13.00;63.08
5938;DHT22;2994;51.220;4.412;2023-02-19T16:01:32;12.91;62.66
5938;DHT22;2994;51.220;4.412;2023-02-19T16:03:59;12.76;62.92
5938;DHT22;2994;51.220;4.412;2023-02-19T16:06:25;12.76;63.16
5938;DHT22;2994;51.220;4.412;2023-02-19T16:14:30;12.63;62.37
5938;DHT22;2994;51.220;4.412;2023-02-19T16:22:13;12.55;64.16
5938;DHT22;2994;51.220;4.412;2023-02-19T16:24:45;12.58;64.51
5938;DHT22;2994;51.220;4.412;2023-02-19T16:27:12;12.57;64.98
5938;DHT22;2994;51.220;4.412;2023-02-19T16:29:39;12.69;64.47
5938;DHT22;2994;51.220;4.412;2023-02-19T16:32:06;12.73;64.78
5938;DHT22;2994;51.220;4.412;2023-02-19T16:34:40;12.75;64.09
5938;DHT22;2994;51.220;4.412;2023-02-19T16:42:34;12.61;63.11
5938;DHT22;2994;51.220;4.412;2023-02-19T16:45:01;12.65;62.88
5938;DHT22;2994;51.220;4.412;2023-02-19T16:47:36;12.66;62.89
5938;DHT22;2994;51.220;4.412;2023-02-19T16:50:11;12.58;62.82
5938;DHT22;2994;51.220;4.412;2023-02-19T16:55:17;12.47;62.70
5938;DHT22;2994;51.220;4.412;2023-02-19T16:57:42;12.46;63.44
5938;DHT22;2994;51.220;4.412;2023-02-19T17:00:13;12.41;63.56
5938;DHT22;2994;51.220;4.412;2023-02-19T17:02:39;12.16;63.88
5938;DHT22;2994;51.220;4.412;2023-02-19T17:05:04;11.94;64.59
5938;DHT22;2994;51.220;4.412;2023-02-19T17:07:30;11.76;65.35
5938;DHT22;2994;51.220;4.412;2023-02-19T17:09:55;11.85;65.20
5938;DHT22;2994;51.220;4.412;2023-02-19T17:12:21;11.97;64.81
5938;DHT22;2994;51.220;4.412;2023-02-19T17:14:47;12.00;64.72
5938;DHT22;2994;51.220;4.412;2023-02-19T17:17:12;11.85;65.44
5938;DHT22;2994;51.220;4.412;2023-02-19T17:19:38;11.87;65.41
5938;DHT22;2994;51.220;4.412;2023-02-19T17:22:04;11.90;65.36
5938;DHT22;2994;51.220;4.412;2023-02-19T17:24:29;11.92;65.61
5938;DHT22;2994;51.220;4.412;2023-02-19T17:26:55;11.94;65.46
5938;DHT22;2994;51.220;4.412;2023-02-19T17:29:21;11.86;65.67
5938;DHT22;2994;51.220;4.412;2023-02-19T17:31:47;11.77;66.20
5938;DHT22;2994;51.220;4.412;2023-02-19T17:34:12;11.86;66.09
5938;DHT22;2994;51.220;4.412;2023-02-19T17:36:38;11.81;66.52
5938;DHT22;2994;51.220;4.412;2023-02-19T17:39:05;11.86;66.53
5938;DHT22;2994;51.220;4.412;2023-02-19T17:41:36;11.86;66.52
5938;DHT22;2994;51.220;4.412;2023-02-19T17:44:01;11.71;67.33
5938;DHT22;2994;51.220;4.412;2023-02-19T17:46:27;11.78;67.14
5938;DHT22;2994;51.220;4.412;2023-02-19T17:48:53;11.85;66.97
5938;DHT22;2994;51.220;4.412;2023-02-19T17:51:19;11.85;66.91
5938;DHT22;2994;51.220;4.412;2023-02-19T17:53:45;11.75;67.33
5938;DHT22;2994;51.220;4.412;2023-02-19T17:56:17;11.63;67.87
5938;DHT22;2994;51.220;4.412;2023-02-19T17:58:44;11.66;67.91
5938;DHT22;2994;51.220;4.412;2023-02-19T18:01:10;11.66;68.07
5938;DHT22;2994;51.220;4.412;2023-02-19T18:03:35;11.59;68.60
5938;DHT22;2994;51.220;4.412;2023-02-19T18:06:01;11.48;68.84
5938;DHT22;2994;51.220;4.412;2023-02-19T18:08:26;11.47;68.84
5938;DHT22;2994;51.220;4.412;2023-02-19T18:10:52;11.41;69.23
5938;DHT22;2994;51.220;4.412;2023-02-19T18:13:17;11.34;69.36
5938;DHT22;2994;51.220;4.412;2023-02-19T18:15:43;11.47;68.78
5938;DHT22;2994;51.220;4.412;2023-02-19T18:18:08;11.47;68.96
5938;DHT22;2994;51.220;4.412;2023-02-19T18:20:34;11.40;69.43
5938;DHT22;2994;51.220;4.412;2023-02-19T18:23:00;11.43;69.27
5938;DHT22;2994;51.220;4.412;2023-02-19T18:25:25;11.33;69.59
5938;DHT22;2994;51.220;4.412;2023-02-19T18:27:51;11.36;69.54
5938;DHT22;2994;51.220;4.412;2023-02-19T18:30:18;11.38;69.54
5938;DHT22;2994;51.220;4.412;2023-02-19T18:32:47;11.34;69.69
5938;DHT22;2994;51.220;4.412;2023-02-19T18:35:17;11.34;69.66
5938;DHT22;2994;51.220;4.412;2023-02-19T18:37:43;11.41;69.42
5938;DHT22;2994;51.220;4.412;2023-02-19T18:40:10;11.42;69.42
5938;DHT22;2994;51.220;4.412;2023-02-19T18:42:36;11.34;69.72
5938;DHT22;2994;51.220;4.412;2023-02-19T18:45:02;11.31;69.93
5938;DHT22;2994;51.220;4.412;2023-02-19T18:47:27;11.29;70.01
5938;DHT22;2994;51.220;4.412;2023-02-19T18:49:55;11.33;69.90